sensor_id;sensor_type;location;lat;lon;timestamp;temperature;humidity
62424;DHT22;48463;43.604;3.872;2023-05-07T00:00:37;16.90;99.90
62424;DHT22;48463;43.604;3.872;2023-05-07T00:03:03;17.00;99.90
62424;DHT22;48463;43.604;3.872;2023-05-07T00:05:29;17.10;99.90
62424;DHT22;48463;43.604;3.872;2023-05-07T00:07:55;17.10;99.90
62424;DHT22;48463;43.604;3.872;2023-05-07T00:10:21;17.20;99.90
62424;DHT22;48463;43.604;3.872;2023-05-07T00:12:47;17.30;99.90
62424;DHT22;48463;43.604;3.872;2023-05-07T00:15:12;17.50;99.90
62424;DHT22;48463;43.604;3.872;2023-05-07T00:17:38;17.40;99.90
62424;DHT22;48463;43.604;3.872;2023-05-07T00:20:04;17.30;99.90
62424;DHT22;48463;43.604;3.872;2023-05-07T00:22:31;17.30;99.90
62424;DHT22;48463;43.604;3.872;2023-05-07T00:24:58;17.20;99.90
62424;DHT22;48463;43.604;3.872;2023-05-07T00:27:24;17.10;99.90
62424;DHT22;48463;43.604;3.872;2023-05-07T00:29:50;16.80;99.90
62424;DHT22;48463;43.604;3.872;2023-05-07T00:32:16;16.60;99.90
62424;DHT22;48463;43.604;3.872;2023-05-07T00:34:42;16.50;99.90
62424;DHT22;48463;43.604;3.872;2023-05-07T00:37:08;16.50;99.90
62424;DHT22;48463;43.604;3.872;2023-05-07T00:39:35;16.60;99.90
62424;DHT22;48463;43.604;3.872;2023-05-07T00:42:01;16.60;99.90
62424;DHT22;48463;43.604;3.872;2023-05-07T00:44:28;16.60;99.90
62424;DHT22;48463;43.604;3.872;2023-05-07T00:46:56;16.60;99.90
62424;DHT22;48463;43.604;3.872;2023-05-07T00:49:25;16.50;99.90
62424;DHT22;48463;43.604;3.872;2023-05-07T00:51:52;16.60;99.90
62424;DHT22;48463;43.604;3.872;2023-05-07T00:54:18;16.50;99.90
62424;DHT22;48463;43.604;3.872;2023-05-07T00:56:44;16.50;99.90
62424;DHT22;48463;43.604;3.872;2023-05-07T00:59:10;16.50;99.90
62424;DHT22;48463;43.604;3.872;2023-05-07T01:01:36;16.40;99.90
62424;DHT22;48463;43.604;3.872;2023-05-07T01:04:02;16.50;99.90
62424;DHT22;48463;43.604;3.872;2023-05-07T01:06:29;16.50;99.90
62424;DHT22;48463;43.604;3.872;2023-05-07T01:08:55;16.50;99.90
62424;DHT22;48463;43.604;3.872;2023-05-07T01:11:23;16.50;99.90
62424;DHT22;48463;43.604;3.872;2023-05-07T01:13:49;16.60;99.90
62424;DHT22;48463;43.604;3.872;2023-05-07T01:16:15;16.50;99.90
62424;DHT22;48463;43.604;3.872;2023-05-07T01:18:41;16.50;99.90
62424;DHT22;48463;43.604;3.872;2023-05-07T01:21:07;16.60;99.90
62424;DHT22;48463;43.604;3.872;2023-05-07T01:23:36;16.50;99.90
62424;DHT22;48463;43.604;3.872;2023-05-07T01:26:02;16.50;99.90
62424;DHT22;48463;43.604;3.872;2023-05-07T01:28:27;16.60;99.90
62424;DHT22;48463;43.604;3.872;2023-05-07T01:30:55;16.60;99.90
62424;DHT22;48463;43.604;3.872;2023-05-07T01:33:22;16.80;99.90
62424;DHT22;48463;43.604;3.872;2023-05-07T01:35:51;16.80;99.90
62424;DHT22;48463;43.604;3.872;2023-05-07T01:38:19;16.80;99.90
62424;DHT22;48463;43.604;3.872;2023-05-07T01:40:45;16.80;99.90
62424;DHT22;48463;43.604;3.872;2023-05-07T01:43:11;16.70;99.90
62424;DHT22;48463;43.604;3.872;2023-05-07T01:45:38;16.60;99.90
62424;DHT22;48463;43.604;3.872;2023-05-07T01:48:05;16.60;99.90
62424;DHT22;48463;43.604;3.872;2023-05-07T01:50:31;16.60;99.90
62424;DHT22;48463;43.604;3.872;2023-05-07T01:52:57;16.60;99.90
62424;DHT22;48463;43.604;3.872;2023-05-07T01:55:23;16.70;99.90
62424;DHT22;48463;43.604;3.872;2023-05-07T01:57:49;16.80;99.90
62424;DHT22;48463;43.604;3.872;2023-05-07T02:00:15;16.90;99.90
62424;DHT22;48463;43.604;3.872;2023-05-07T02:02:40;16.90;99.90
62424;DHT22;48463;43.604;3.872;2023-05-07T02:05:06;16.90;99.90
62424;DHT22;48463;43.604;3.872;2023-05-07T02:07:32;16.90;99.90
62424;DHT22;48463;43.604;3.872;2023-05-07T02:09:57;16.90;99.90
62424;DHT22;48463;43.604;3.872;2023-05-07T02:12:23;16.90;99.90
62424;DHT22;48463;43.604;3.872;2023-05-07T02:14:49;16.80;99.90
62424;DHT22;48463;43.604;3.872;2023-05-07T02:17:15;16.70;99.90
62424;DHT22;48463;43.604;3.872;2023-05-07T02:19:41;16.70;99.90
62424;DHT22;48463;43.604;3.872;2023-05-07T02:22:07;16.80;99.90
62424;DHT22;48463;43.604;3.872;2023-05-07T02:24:33;16.70;99.90
62424;DHT22;48463;43.604;3.872;2023-05-07T02:26:58;16.70;99.90
62424;DHT22;48463;43.604;3.872;2023-05-07T02:29:24;16.70;99.90
62424;DHT22;48463;43.604;3.872;2023-05-07T02:31:50;16.60;99.90
62424;DHT22;48463;43.604;3.872;2023-05-07T02:34:18;16.60;99.90
62424;DHT22;48463;43.604;3.872;2023-05-07T02:36:44;16.60;99.90
62424;DHT22;48463;43.604;3.872;2023-05-07T02:39:11;16.50;99.90
62424;DHT22;48463;43.604;3.872;2023-05-07T02:41:37;16.50;99.90
62424;DHT22;48463;43.604;3.872;2023-05-07T02:44:03;16.50;99.90
62424;DHT22;48463;43.604;3.872;2023-05-07T02:46:29;16.50;99.90
62424;DHT22;48463;43.604;3.872;2023-05-07T02:48:55;16.50;99.90
62424;DHT22;48463;43.604;3.872;2023-05-07T02:51:22;16.50;99.90
62424;DHT22;48463;43.604;3.872;2023-05-07T02:53:47;16.50;99.90
62424;DHT22;48463;43.604;3.872;2023-05-07T02:56:13;16.50;99.90
62424;DHT22;48463;43.604;3.872;2023-05-07T02:58:39;16.60;99.90
62424;DHT22;48463;43.604;3.872;2023-05-07T03:01:05;16.50;99.90
62424;DHT22;48463;43.604;3.872;2023-05-07T03:03:31;16.60;99.90
62424;DHT22;48463;43.604;3.872;2023-05-07T03:05:57;16.60;99.90
62424;DHT22;48463;43.604;3.872;2023-05-07T03:08:24;16.50;99.90
62424;DHT22;48463;43.604;3.872;2023-05-07T03:10:50;16.50;99.90
62424;DHT22;48463;43.604;3.872;2023-05-07T03:13:16;16.50;99.90
62424;DHT22;48463;43.604;3.872;2023-05-07T03:15:41;16.50;99.90
62424;DHT22;48463;43.604;3.872;2023-05-07T03:18:07;16.50;99.90
62424;DHT22;48463;43.604;3.872;2023-05-07T03:20:33;16.50;99.90
62424;DHT22;48463;43.604;3.872;2023-05-07T03:22:59;16.50;99.90
62424;DHT22;48463;43.604;3.872;2023-05-07T03:25:24;16.50;99.90
62424;DHT22;48463;43.604;3.872;2023-05-07T03:27:50;16.50;99.90
62424;DHT22;48463;43.604;3.872;2023-05-07T03:30:16;16.50;99.90
62424;DHT22;48463;43.604;3.872;2023-05-07T03:32:42;16.60;99.90
62424;DHT22;48463;43.604;3.872;2023-05-07T03:35:08;16.50;99.90
62424;DHT22;48463;43.604;3.872;2023-05-07T03:37:34;16.60;99.90
62424;DHT22;48463;43.604;3.872;2023-05-07T03:39:59;16.50;99.90
62424;DHT22;48463;43.604;3.872;2023-05-07T03:42:25;16.50;99.90
62424;DHT22;48463;43.604;3.872;2023-05-07T03:44:51;16.50;99.90
62424;DHT22;48463;43.604;3.872;2023-05-07T03:47:16;16.50;99.90
62424;DHT22;48463;43.604;3.872;2023-05-07T03:49:42;16.50;99.90
62424;DHT22;48463;43.604;3.872;2023-05-07T03:52:08;16.50;99.90
62424;DHT22;48463;43.604;3.872;2023-05-07T03:54:33;16.50;99.90
62424;DHT22;48463;43.604;3.872;2023-05-07T03:56:59;16.40;99.90
62424;DHT22;48463;43.604;3.872;2023-05-07T03:59:24;16.50;99.90
62424;DHT22;48463;43.604;3.872;2023-05-07T04:01:50;16.50;99.90
62424;DHT22;48463;43.604;3.872;2023-05-07T04:04:16;16.40;99.90
62424;DHT22;48463;43.604;3.872;2023-05-07T04:07:00;16.40;99.90
62424;DHT22;48463;43.604;3.872;2023-05-07T04:09:41;16.40;99.90
62424;DHT22;48463;43.604;3.872;2023-05-07T04:12:44;16.40;99.90
62424;DHT22;48463;43.604;3.872;2023-05-07T04:15:55;16.40;99.90
62424;DHT22;48463;43.604;3.872;2023-05-07T04:19:34;16.40;99.90
62424;DHT22;48463;43.604;3.872;2023-05-07T04:22:37;16.40;99.90
62424;DHT22;48463;43.604;3.872;2023-05-07T04:25:32;16.40;99.90
62424;DHT22;48463;43.604;3.872;2023-05-07T04:28:11;16.40;99.90
62424;DHT22;48463;43.604;3.872;2023-05-07T04:31:04;16.30;99.90
62424;DHT22;48463;43.604;3.872;2023-05-07T04:34:04;16.30;99.90
62424;DHT22;48463;43.604;3.872;2023-05-07T04:36:32;16.30;99.90
62424;DHT22;48463;43.604;3.872;2023-05-07T04:39:12;16.30;99.90
62424;DHT22;48463;43.604;3.872;2023-05-07T04:41:41;16.30;99.90
62424;DHT22;48463;43.604;3.872;2023-05-07T04:44:07;16.30;99.90
62424;DHT22;48463;43.604;3.872;2023-05-07T04:46:34;16.30;99.90
62424;DHT22;48463;43.604;3.872;2023-05-07T04:49:11;16.30;99.90
62424;DHT22;48463;43.604;3.872;2023-05-07T04:51:45;16.40;99.90
62424;DHT22;48463;43.604;3.872;2023-05-07T04:54:34;16.40;99.90
62424;DHT22;48463;43.604;3.872;2023-05-07T04:57:00;16.50;99.90
62424;DHT22;48463;43.604;3.872;2023-05-07T04:59:42;16.60;99.90
62424;DHT22;48463;43.604;3.872;2023-05-07T05:02:08;16.60;99.90
62424;DHT22;48463;43.604;3.872;2023-05-07T05:04:33;16.70;99.90
62424;DHT22;48463;43.604;3.872;2023-05-07T05:06:59;16.60;99.90
62424;DHT22;48463;43.604;3.872;2023-05-07T05:09:25;16.60;99.90
62424;DHT22;48463;43.604;3.872;2023-05-07T05:11:50;16.60;99.90
62424;DHT22;48463;43.604;3.872;2023-05-07T05:14:16;16.60;99.90
62424;DHT22;48463;43.604;3.872;2023-05-07T05:16:41;16.70;99.90
62424;DHT22;48463;43.604;3.872;2023-05-07T05:19:07;16.70;99.90
62424;DHT22;48463;43.604;3.872;2023-05-07T05:21:33;16.70;99.90
62424;DHT22;48463;43.604;3.872;2023-05-07T05:23:58;16.70;99.90
62424;DHT22;48463;43.604;3.872;2023-05-07T05:26:24;16.60;99.90
62424;DHT22;48463;43.604;3.872;2023-05-07T05:28:50;16.70;99.90
62424;DHT22;48463;43.604;3.872;2023-05-07T05:31:16;16.90;99.90
62424;DHT22;48463;43.604;3.872;2023-05-07T05:33:43;17.00;99.90
62424;DHT22;48463;43.604;3.872;2023-05-07T05:36:12;17.00;99.90
62424;DHT22;48463;43.604;3.872;2023-05-07T05:38:39;17.10;99.90
62424;DHT22;48463;43.604;3.872;2023-05-07T05:41:05;17.10;99.90
62424;DHT22;48463;43.604;3.872;2023-05-07T05:43:30;17.10;99.90
62424;DHT22;48463;43.604;3.872;2023-05-07T05:45:57;17.00;99.90
62424;DHT22;48463;43.604;3.872;2023-05-07T05:48:23;17.00;99.90
62424;DHT22;48463;43.604;3.872;2023-05-07T05:50:49;17.10;99.90
62424;DHT22;48463;43.604;3.872;2023-05-07T05:53:15;17.30;99.90
62424;DHT22;48463;43.604;3.872;2023-05-07T05:55:41;17.50;99.90
62424;DHT22;48463;43.604;3.872;2023-05-07T05:58:07;17.70;99.90
62424;DHT22;48463;43.604;3.872;2023-05-07T06:00:34;17.80;99.90
62424;DHT22;48463;43.604;3.872;2023-05-07T06:02:59;17.80;99.90
62424;DHT22;48463;43.604;3.872;2023-05-07T06:05:25;17.60;99.90
62424;DHT22;48463;43.604;3.872;2023-05-07T06:07:51;17.80;99.90
62424;DHT22;48463;43.604;3.872;2023-05-07T06:10:16;17.90;99.90
62424;DHT22;48463;43.604;3.872;2023-05-07T06:12:42;17.90;99.90
62424;DHT22;48463;43.604;3.872;2023-05-07T06:15:08;18.00;99.90
62424;DHT22;48463;43.604;3.872;2023-05-07T06:17:34;18.10;99.90
62424;DHT22;48463;43.604;3.872;2023-05-07T06:19:59;18.20;99.90
62424;DHT22;48463;43.604;3.872;2023-05-07T06:22:25;18.20;99.90
62424;DHT22;48463;43.604;3.872;2023-05-07T06:24:52;18.20;99.90
62424;DHT22;48463;43.604;3.872;2023-05-07T06:27:18;18.20;99.90
62424;DHT22;48463;43.604;3.872;2023-05-07T06:29:44;18.10;99.90
62424;DHT22;48463;43.604;3.872;2023-05-07T06:32:11;17.90;99.90
62424;DHT22;48463;43.604;3.872;2023-05-07T06:34:37;17.80;99.90
62424;DHT22;48463;43.604;3.872;2023-05-07T06:37:03;17.90;99.90
62424;DHT22;48463;43.604;3.872;2023-05-07T06:39:29;18.10;99.90
62424;DHT22;48463;43.604;3.872;2023-05-07T06:41:55;18.10;99.90
62424;DHT22;48463;43.604;3.872;2023-05-07T06:44:20;18.00;99.90
62424;DHT22;48463;43.604;3.872;2023-05-07T06:46:46;17.90;99.90
62424;DHT22;48463;43.604;3.872;2023-05-07T06:49:13;17.90;99.90
62424;DHT22;48463;43.604;3.872;2023-05-07T06:51:38;18.10;99.90
62424;DHT22;48463;43.604;3.872;2023-05-07T06:54:04;18.00;99.90
62424;DHT22;48463;43.604;3.872;2023-05-07T06:56:31;18.20;99.90
62424;DHT22;48463;43.604;3.872;2023-05-07T06:58:56;18.20;99.90
62424;DHT22;48463;43.604;3.872;2023-05-07T07:01:22;18.30;99.90
62424;DHT22;48463;43.604;3.872;2023-05-07T07:03:48;18.50;99.90
62424;DHT22;48463;43.604;3.872;2023-05-07T07:06:14;18.40;99.90
62424;DHT22;48463;43.604;3.872;2023-05-07T07:08:41;18.50;99.90
62424;DHT22;48463;43.604;3.872;2023-05-07T07:11:07;18.40;99.90
62424;DHT22;48463;43.604;3.872;2023-05-07T07:13:33;18.50;99.90
62424;DHT22;48463;43.604;3.872;2023-05-07T07:16:00;18.50;99.90
62424;DHT22;48463;43.604;3.872;2023-05-07T07:18:25;18.60;99.90
62424;DHT22;48463;43.604;3.872;2023-05-07T07:20:51;18.90;99.90
62424;DHT22;48463;43.604;3.872;2023-05-07T07:23:17;18.90;99.90
62424;DHT22;48463;43.604;3.872;2023-05-07T07:25:42;19.00;99.90
62424;DHT22;48463;43.604;3.872;2023-05-07T07:28:08;18.90;99.90
62424;DHT22;48463;43.604;3.872;2023-05-07T07:30:34;18.70;99.90
62424;DHT22;48463;43.604;3.872;2023-05-07T07:33:01;18.80;99.90
62424;DHT22;48463;43.604;3.872;2023-05-07T07:35:29;18.80;99.90
62424;DHT22;48463;43.604;3.872;2023-05-07T07:37:55;18.90;99.90
62424;DHT22;48463;43.604;3.872;2023-05-07T07:40:22;18.90;99.90
62424;DHT22;48463;43.604;3.872;2023-05-07T07:42:47;19.10;99.90
62424;DHT22;48463;43.604;3.872;2023-05-07T07:45:13;19.20;99.90
62424;DHT22;48463;43.604;3.872;2023-05-07T07:47:39;19.40;99.90
62424;DHT22;48463;43.604;3.872;2023-05-07T07:50:06;19.30;99.90
62424;DHT22;48463;43.604;3.872;2023-05-07T07:52:32;19.50;99.90
62424;DHT22;48463;43.604;3.872;2023-05-07T07:54:58;19.50;99.90
62424;DHT22;48463;43.604;3.872;2023-05-07T07:57:26;19.60;99.90
62424;DHT22;48463;43.604;3.872;2023-05-07T07:59:52;19.70;99.90
62424;DHT22;48463;43.604;3.872;2023-05-07T08:02:18;19.80;99.90
62424;DHT22;48463;43.604;3.872;2023-05-07T08:04:43;20.00;99.90
62424;DHT22;48463;43.604;3.872;2023-05-07T08:07:10;20.20;99.90
62424;DHT22;48463;43.604;3.872;2023-05-07T08:09:37;20.30;99.90
62424;DHT22;48463;43.604;3.872;2023-05-07T08:12:04;20.10;99.90
62424;DHT22;48463;43.604;3.872;2023-05-07T08:14:30;20.30;99.90
62424;DHT22;48463;43.604;3.872;2023-05-07T08:16:56;20.50;99.90
62424;DHT22;48463;43.604;3.872;2023-05-07T08:19:22;20.60;99.90
62424;DHT22;48463;43.604;3.872;2023-05-07T08:21:48;20.70;99.90
62424;DHT22;48463;43.604;3.872;2023-05-07T08:24:14;20.80;99.90
62424;DHT22;48463;43.604;3.872;2023-05-07T08:26:41;20.90;99.90
62424;DHT22;48463;43.604;3.872;2023-05-07T08:29:06;21.30;99.90
62424;DHT22;48463;43.604;3.872;2023-05-07T08:31:32;21.50;99.90
62424;DHT22;48463;43.604;3.872;2023-05-07T08:33:58;21.60;99.90
62424;DHT22;48463;43.604;3.872;2023-05-07T08:36:24;21.80;99.90
62424;DHT22;48463;43.604;3.872;2023-05-07T08:38:51;21.90;99.90
62424;DHT22;48463;43.604;3.872;2023-05-07T08:41:17;21.90;99.90
62424;DHT22;48463;43.604;3.872;2023-05-07T08:43:47;22.00;99.90
62424;DHT22;48463;43.604;3.872;2023-05-07T08:46:17;21.90;99.90
62424;DHT22;48463;43.604;3.872;2023-05-07T08:48:44;22.30;99.90
62424;DHT22;48463;43.604;3.872;2023-05-07T08:51:15;22.50;99.90
62424;DHT22;48463;43.604;3.872;2023-05-07T08:53:42;22.60;99.90
62424;DHT22;48463;43.604;3.872;2023-05-07T08:56:09;22.60;99.90
62424;DHT22;48463;43.604;3.872;2023-05-07T08:58:35;22.80;99.90
62424;DHT22;48463;43.604;3.872;2023-05-07T09:01:08;22.80;99.90
62424;DHT22;48463;43.604;3.872;2023-05-07T09:03:36;23.00;99.90
62424;DHT22;48463;43.604;3.872;2023-05-07T09:06:02;23.00;99.90
62424;DHT22;48463;43.604;3.872;2023-05-07T09:08:28;22.80;99.90
62424;DHT22;48463;43.604;3.872;2023-05-07T09:10:54;22.80;99.90
62424;DHT22;48463;43.604;3.872;2023-05-07T09:13:20;23.10;99.90
62424;DHT22;48463;43.604;3.872;2023-05-07T09:15:46;23.40;99.90
62424;DHT22;48463;43.604;3.872;2023-05-07T09:18:14;23.50;99.40
62424;DHT22;48463;43.604;3.872;2023-05-07T09:20:40;23.40;99.60
62424;DHT22;48463;43.604;3.872;2023-05-07T09:23:07;23.40;99.80
62424;DHT22;48463;43.604;3.872;2023-05-07T09:25:33;23.60;99.50
62424;DHT22;48463;43.604;3.872;2023-05-07T09:28:04;23.80;99.90
62424;DHT22;48463;43.604;3.872;2023-05-07T09:30:30;23.40;99.90
62424;DHT22;48463;43.604;3.872;2023-05-07T09:33:01;23.30;99.90
62424;DHT22;48463;43.604;3.872;2023-05-07T09:35:27;23.40;99.90
62424;DHT22;48463;43.604;3.872;2023-05-07T09:37:58;23.40;99.90
62424;DHT22;48463;43.604;3.872;2023-05-07T09:40:25;23.50;99.90
62424;DHT22;48463;43.604;3.872;2023-05-07T09:42:51;23.60;99.90
62424;DHT22;48463;43.604;3.872;2023-05-07T09:45:30;23.50;99.60
62424;DHT22;48463;43.604;3.872;2023-05-07T09:47:57;23.20;99.00
62424;DHT22;48463;43.604;3.872;2023-05-07T09:50:29;23.20;98.80
62424;DHT22;48463;43.604;3.872;2023-05-07T09:52:57;22.90;98.70
62424;DHT22;48463;43.604;3.872;2023-05-07T09:55:24;23.20;98.90
62424;DHT22;48463;43.604;3.872;2023-05-07T09:57:51;23.30;99.80
62424;DHT22;48463;43.604;3.872;2023-05-07T10:00:19;23.40;99.90
62424;DHT22;48463;43.604;3.872;2023-05-07T10:02:49;23.50;98.10
62424;DHT22;48463;43.604;3.872;2023-05-07T10:05:20;23.80;97.90
62424;DHT22;48463;43.604;3.872;2023-05-07T10:07:47;23.90;97.20
62424;DHT22;48463;43.604;3.872;2023-05-07T10:10:14;23.90;96.50
62424;DHT22;48463;43.604;3.872;2023-05-07T10:12:41;23.70;96.30
62424;DHT22;48463;43.604;3.872;2023-05-07T10:15:11;23.60;96.30
62424;DHT22;48463;43.604;3.872;2023-05-07T10:17:39;23.50;96.60
62424;DHT22;48463;43.604;3.872;2023-05-07T10:20:05;23.60;96.50
62424;DHT22;48463;43.604;3.872;2023-05-07T10:22:48;24.00;96.70
62424;DHT22;48463;43.604;3.872;2023-05-07T10:25:18;24.20;96.40
62424;DHT22;48463;43.604;3.872;2023-05-07T10:27:47;23.90;95.90
62424;DHT22;48463;43.604;3.872;2023-05-07T10:33:25;24.40;95.90
62424;DHT22;48463;43.604;3.872;2023-05-07T10:35:57;24.20;95.40
62424;DHT22;48463;43.604;3.872;2023-05-07T10:38:24;24.20;95.70
62424;DHT22;48463;43.604;3.872;2023-05-07T10:40:51;24.30;95.60
62424;DHT22;48463;43.604;3.872;2023-05-07T10:43:17;24.00;95.80
62424;DHT22;48463;43.604;3.872;2023-05-07T10:45:42;24.60;95.40
62424;DHT22;48463;43.604;3.872;2023-05-07T10:48:13;24.30;95.10
62424;DHT22;48463;43.604;3.872;2023-05-07T10:50:43;24.40;95.10
62424;DHT22;48463;43.604;3.872;2023-05-07T11:00:47;24.30;94.70
62424;DHT22;48463;43.604;3.872;2023-05-07T11:03:13;24.70;94.50
62424;DHT22;48463;43.604;3.872;2023-05-07T11:05:41;24.60;94.00
62424;DHT22;48463;43.604;3.872;2023-05-07T11:08:08;24.60;94.00
62424;DHT22;48463;43.604;3.872;2023-05-07T11:10:54;24.60;93.90
62424;DHT22;48463;43.604;3.872;2023-05-07T11:16:22;25.40;93.50
62424;DHT22;48463;43.604;3.872;2023-05-07T11:18:53;25.60;92.90
62424;DHT22;48463;43.604;3.872;2023-05-07T11:21:33;25.30;92.90
62424;DHT22;48463;43.604;3.872;2023-05-07T11:24:00;25.40;92.70
62424;DHT22;48463;43.604;3.872;2023-05-07T11:26:27;25.70;92.60
62424;DHT22;48463;43.604;3.872;2023-05-07T11:28:53;25.50;92.60
62424;DHT22;48463;43.604;3.872;2023-05-07T11:31:22;25.50;91.80
62424;DHT22;48463;43.604;3.872;2023-05-07T11:33:49;25.50;91.90
62424;DHT22;48463;43.604;3.872;2023-05-07T11:36:18;25.50;91.40
62424;DHT22;48463;43.604;3.872;2023-05-07T11:38:45;25.30;91.90
62424;DHT22;48463;43.604;3.872;2023-05-07T11:41:11;25.10;91.70
62424;DHT22;48463;43.604;3.872;2023-05-07T11:43:36;24.90;91.70
62424;DHT22;48463;43.604;3.872;2023-05-07T11:46:20;24.80;91.60
62424;DHT22;48463;43.604;3.872;2023-05-07T11:48:46;24.80;91.40
62424;DHT22;48463;43.604;3.872;2023-05-07T11:51:12;24.90;90.60
62424;DHT22;48463;43.604;3.872;2023-05-07T11:53:41;24.80;90.50
62424;DHT22;48463;43.604;3.872;2023-05-07T11:56:11;25.00;91.40
62424;DHT22;48463;43.604;3.872;2023-05-07T11:58:37;25.00;91.40
62424;DHT22;48463;43.604;3.872;2023-05-07T12:01:03;25.10;91.30
62424;DHT22;48463;43.604;3.872;2023-05-07T12:03:29;25.10;91.30
62424;DHT22;48463;43.604;3.872;2023-05-07T12:05:55;24.80;91.00
62424;DHT22;48463;43.604;3.872;2023-05-07T12:08:21;25.10;91.10
62424;DHT22;48463;43.604;3.872;2023-05-07T12:10:48;25.20;90.20
62424;DHT22;48463;43.604;3.872;2023-05-07T12:13:19;25.50;90.20
62424;DHT22;48463;43.604;3.872;2023-05-07T12:15:45;26.10;90.00
62424;DHT22;48463;43.604;3.872;2023-05-07T12:18:11;26.00;89.30
62424;DHT22;48463;43.604;3.872;2023-05-07T12:20:38;25.70;89.50
62424;DHT22;48463;43.604;3.872;2023-05-07T12:23:05;25.50;90.00
62424;DHT22;48463;43.604;3.872;2023-05-07T12:25:38;25.50;89.80
62424;DHT22;48463;43.604;3.872;2023-05-07T12:28:13;25.60;89.50
62424;DHT22;48463;43.604;3.872;2023-05-07T12:30:40;25.40;90.00
62424;DHT22;48463;43.604;3.872;2023-05-07T12:33:06;25.40;88.10
62424;DHT22;48463;43.604;3.872;2023-05-07T12:35:39;26.10;89.30
62424;DHT22;48463;43.604;3.872;2023-05-07T12:38:12;26.40;87.00
62424;DHT22;48463;43.604;3.872;2023-05-07T12:40:40;26.50;85.10
62424;DHT22;48463;43.604;3.872;2023-05-07T12:43:20;26.60;85.70
62424;DHT22;48463;43.604;3.872;2023-05-07T12:45:48;26.80;85.30
62424;DHT22;48463;43.604;3.872;2023-05-07T12:48:14;26.60;85.60
62424;DHT22;48463;43.604;3.872;2023-05-07T12:50:40;25.90;86.00
62424;DHT22;48463;43.604;3.872;2023-05-07T12:53:07;26.20;86.30
62424;DHT22;48463;43.604;3.872;2023-05-07T12:55:47;25.70;86.20
62424;DHT22;48463;43.604;3.872;2023-05-07T12:58:33;25.30;86.70
62424;DHT22;48463;43.604;3.872;2023-05-07T13:01:01;25.50;87.50
62424;DHT22;48463;43.604;3.872;2023-05-07T13:03:32;25.60;87.10
62424;DHT22;48463;43.604;3.872;2023-05-07T13:06:00;25.90;86.10
62424;DHT22;48463;43.604;3.872;2023-05-07T13:08:35;25.60;85.30
62424;DHT22;48463;43.604;3.872;2023-05-07T13:11:02;25.40;85.50
62424;DHT22;48463;43.604;3.872;2023-05-07T13:13:32;25.40;85.70
62424;DHT22;48463;43.604;3.872;2023-05-07T13:15:58;25.80;85.70
62424;DHT22;48463;43.604;3.872;2023-05-07T13:18:28;26.30;84.40
62424;DHT22;48463;43.604;3.872;2023-05-07T13:20:54;26.20;81.10
62424;DHT22;48463;43.604;3.872;2023-05-07T13:23:20;26.50;81.20
62424;DHT22;48463;43.604;3.872;2023-05-07T13:25:47;26.90;79.90
62424;DHT22;48463;43.604;3.872;2023-05-07T13:28:12;26.70;80.00
62424;DHT22;48463;43.604;3.872;2023-05-07T13:30:39;26.30;81.00
62424;DHT22;48463;43.604;3.872;2023-05-07T13:33:06;26.20;81.50
62424;DHT22;48463;43.604;3.872;2023-05-07T13:35:33;26.10;81.80
62424;DHT22;48463;43.604;3.872;2023-05-07T13:37:58;26.50;83.10
62424;DHT22;48463;43.604;3.872;2023-05-07T13:40:25;26.30;82.50
62424;DHT22;48463;43.604;3.872;2023-05-07T13:42:51;26.40;81.00
62424;DHT22;48463;43.604;3.872;2023-05-07T13:45:20;26.10;80.90
62424;DHT22;48463;43.604;3.872;2023-05-07T13:47:46;25.70;81.10
62424;DHT22;48463;43.604;3.872;2023-05-07T13:50:14;25.70;81.10
62424;DHT22;48463;43.604;3.872;2023-05-07T13:52:44;25.70;81.40
62424;DHT22;48463;43.604;3.872;2023-05-07T13:55:20;26.10;81.00
62424;DHT22;48463;43.604;3.872;2023-05-07T13:57:46;26.20;84.30
62424;DHT22;48463;43.604;3.872;2023-05-07T14:00:13;26.70;85.40
62424;DHT22;48463;43.604;3.872;2023-05-07T14:02:40;26.50;86.40
62424;DHT22;48463;43.604;3.872;2023-05-07T14:05:06;26.00;80.60
62424;DHT22;48463;43.604;3.872;2023-05-07T14:07:32;26.50;79.70
62424;DHT22;48463;43.604;3.872;2023-05-07T14:09:57;27.10;78.30
62424;DHT22;48463;43.604;3.872;2023-05-07T14:12:23;27.40;77.40
62424;DHT22;48463;43.604;3.872;2023-05-07T14:14:49;27.00;76.60
62424;DHT22;48463;43.604;3.872;2023-05-07T14:17:16;26.90;77.80
62424;DHT22;48463;43.604;3.872;2023-05-07T14:19:44;27.10;77.30
62424;DHT22;48463;43.604;3.872;2023-05-07T14:22:10;26.90;76.90
62424;DHT22;48463;43.604;3.872;2023-05-07T14:24:36;26.70;77.20
62424;DHT22;48463;43.604;3.872;2023-05-07T14:27:01;26.40;76.80
62424;DHT22;48463;43.604;3.872;2023-05-07T14:29:27;26.70;77.20
62424;DHT22;48463;43.604;3.872;2023-05-07T14:31:53;27.10;75.80
62424;DHT22;48463;43.604;3.872;2023-05-07T14:34:19;27.20;75.40
62424;DHT22;48463;43.604;3.872;2023-05-07T14:36:45;27.70;75.60
62424;DHT22;48463;43.604;3.872;2023-05-07T14:39:11;27.60;74.20
62424;DHT22;48463;43.604;3.872;2023-05-07T14:41:36;27.70;74.10
62424;DHT22;48463;43.604;3.872;2023-05-07T14:44:02;26.90;73.60
62424;DHT22;48463;43.604;3.872;2023-05-07T14:46:29;26.80;74.10
62424;DHT22;48463;43.604;3.872;2023-05-07T14:48:57;26.30;73.80
62424;DHT22;48463;43.604;3.872;2023-05-07T14:51:22;26.40;74.90
62424;DHT22;48463;43.604;3.872;2023-05-07T14:53:50;27.70;74.70
62424;DHT22;48463;43.604;3.872;2023-05-07T14:56:16;29.30;72.90
62424;DHT22;48463;43.604;3.872;2023-05-07T14:58:43;30.40;71.30
62424;DHT22;48463;43.604;3.872;2023-05-07T15:01:08;31.10;69.50
62424;DHT22;48463;43.604;3.872;2023-05-07T15:03:34;28.80;71.80
62424;DHT22;48463;43.604;3.872;2023-05-07T15:06:01;27.60;74.40
62424;DHT22;48463;43.604;3.872;2023-05-07T15:08:26;28.00;74.60
62424;DHT22;48463;43.604;3.872;2023-05-07T15:10:52;28.30;74.80
62424;DHT22;48463;43.604;3.872;2023-05-07T15:13:18;27.50;74.80
62424;DHT22;48463;43.604;3.872;2023-05-07T15:15:45;26.50;77.20
62424;DHT22;48463;43.604;3.872;2023-05-07T15:18:11;26.50;77.80
62424;DHT22;48463;43.604;3.872;2023-05-07T15:20:36;26.50;76.70
62424;DHT22;48463;43.604;3.872;2023-05-07T15:23:02;26.70;75.60
62424;DHT22;48463;43.604;3.872;2023-05-07T15:25:31;27.30;74.40
62424;DHT22;48463;43.604;3.872;2023-05-07T15:27:58;27.50;74.20
62424;DHT22;48463;43.604;3.872;2023-05-07T15:30:24;27.40;74.00
62424;DHT22;48463;43.604;3.872;2023-05-07T15:32:50;27.20;73.90
62424;DHT22;48463;43.604;3.872;2023-05-07T15:35:16;27.30;74.00
62424;DHT22;48463;43.604;3.872;2023-05-07T15:37:49;27.30;74.10
62424;DHT22;48463;43.604;3.872;2023-05-07T15:40:15;27.10;74.70
62424;DHT22;48463;43.604;3.872;2023-05-07T15:42:41;26.80;74.90
62424;DHT22;48463;43.604;3.872;2023-05-07T15:45:08;26.50;75.70
62424;DHT22;48463;43.604;3.872;2023-05-07T15:47:34;26.10;76.00